Time;durP1;ratioP1;P1;durP2;ratioP2;P2;SDS_P1;SDS_P2;PMS_P1;PMS_P2;Temp;Humidity;BMP_temperature;BMP_pressure;BME280_temperature;BME280_humidity;BME280_pressure;Samples;Min_cycle;Max_cycle;Signal;HPM_P1;HPM_P2
2023/09/03 00:00:49;;;;;;;10.20;6.60;;;;;;;22.52;99.09;100819.63;5090745;28;20020;-79
2023/09/03 00:03:15;;;;;;;9.38;6.55;;;;;;;22.27;100.00;100796.97;5090469;28;20032;-83
2023/09/03 00:05:51;;;;;;;13.85;6.72;;;;;;;22.03;100.00;100808.50;5089436;28;20057;-79
2023/09/03 00:08:17;;;;;;;22.30;7.72;;;;;;;21.85;100.00;100806.81;5090708;28;20108;-83
2023/09/03 00:10:43;;;;;;;10.73;7.50;;;;;;;21.77;100.00;100804.22;5090553;28;20119;-78
2023/09/03 00:13:08;;;;;;;10.02;7.03;;;;;;;21.08;100.00;100710.72;5090707;28;20107;-79
2023/09/03 00:15:36;;;;;;;10.00;7.88;;;;;;;21.68;100.00;100806.03;5090395;28;20043;-78
2023/09/03 00:18:02;;;;;;;16.42;8.50;;;;;;;21.26;100.00;100749.22;5090492;28;20028;-84
2023/09/03 00:20:27;;;;;;;12.00;7.90;;;;;;;21.56;100.00;100805.19;5090394;28;20079;-78
2023/09/03 00:22:53;;;;;;;12.10;7.40;;;;;;;21.38;100.00;100784.19;5072322;28;20027;-79
2023/09/03 00:25:18;;;;;;;11.57;7.57;;;;;;;21.22;100.00;100781.63;5090614;28;20028;-80
2023/09/03 00:27:44;;;;;;;11.85;7.90;;;;;;;21.32;100.00;100808.69;5072330;28;20035;-80
2023/09/03 00:30:10;;;;;;;11.93;7.85;;;;;;;21.12;100.00;100782.47;5071520;28;20036;-82
2023/09/03 00:32:36;;;;;;;11.68;7.75;;;;;;;21.31;100.00;100810.47;5089050;28;20024;-78
2023/09/03 00:35:01;;;;;;;14.00;7.50;;;;;;;21.04;100.00;100795.63;5090207;28;20054;-80
2023/09/03 00:37:26;;;;;;;11.27;8.30;;;;;;;21.03;100.00;100801.75;5089063;28;20084;-79
2023/09/03 00:39:52;;;;;;;9.57;7.78;;;;;;;21.08;100.00;100791.25;5090667;28;20038;-79
2023/09/03 00:42:17;;;;;;;14.50;7.68;;;;;;;20.23;100.00;100673.22;5090404;28;20031;-82
2023/09/03 00:44:43;;;;;;;9.85;7.65;;;;;;;21.04;100.00;100794.75;5090200;28;20039;-79
2023/09/03 00:47:08;;;;;;;12.02;7.35;;;;;;;20.92;100.00;100756.28;5090206;28;20036;-82
2023/09/03 00:49:42;;;;;;;9.57;7.32;;;;;;;21.39;100.00;100809.59;5089897;28;20028;-81
2023/09/03 00:52:09;;;;;;;11.55;7.22;;;;;;;20.76;100.00;100687.19;5072199;28;20032;-84
2023/09/03 00:54:35;;;;;;;10.50;7.15;;;;;;;21.62;100.00;100809.53;5090208;28;20040;-80
2023/09/03 00:57:01;;;;;;;12.68;7.20;;;;;;;21.70;100.00;100815.66;5072112;28;20489;-83
2023/09/03 00:59:27;;;;;;;9.88;7.22;;;;;;;21.44;100.00;100792.91;5089929;28;20487;-80
2023/09/03 01:01:53;;;;;;;9.13;6.93;;;;;;;21.26;100.00;100793.84;5089923;28;20506;-81
2023/09/03 01:04:19;;;;;;;13.65;7.53;;;;;;;21.20;100.00;100798.22;5090370;28;20031;-81
2023/09/03 01:06:47;;;;;;;12.85;8.10;;;;;;;20.82;100.00;100798.28;5089815;28;20024;-81
2023/09/03 01:09:13;;;;;;;10.90;7.63;;;;;;;20.82;100.00;100794.75;5071714;28;20024;-81
2023/09/03 01:11:44;;;;;;;11.88;7.88;;;;;;;21.08;100.00;100805.22;5046837;28;20040;-82
2023/09/03 01:14:25;;;;;;;13.52;7.50;;;;;;;21.28;100.00;100807.84;5046776;28;20539;-80
2023/09/03 01:17:30;;;;;;;10.77;7.28;;;;;;;21.30;100.00;100792.09;5047060;28;20052;-81
2023/09/03 01:20:54;;;;;;;10.65;7.72;;;;;;;21.09;100.00;100754.47;4949226;29;20039;-79
2023/09/03 01:23:32;;;;;;;10.43;7.20;;;;;;;21.50;100.00;100803.41;4870513;29;20128;-79
2023/09/03 01:26:22;;;;;;;9.60;7.68;;;;;;;21.52;100.00;100805.16;4877222;29;20060;-80
2023/09/03 01:28:47;;;;;;;;;;;;;;;21.54;98.60;100804.28;4861997;29;20537;-80
2023/09/03 01:31:15;;;;;;;14.60;7.50;;;;;;;21.54;99.65;100803.41;4877036;29;19919;-80
2023/09/03 01:33:43;;;;;;;11.82;7.72;;;;;;;21.48;99.34;100799.03;4861209;29;20051;-80
2023/09/03 01:36:09;;;;;;;9.77;7.80;;;;;;;21.45;99.63;100783.31;4876878;29;20139;-82
2023/09/03 01:38:39;;;;;;;11.38;8.43;;;;;;;21.11;100.00;100730.84;4861364;29;20441;-80
2023/09/03 01:41:06;;;;;;;13.40;8.23;;;;;;;21.54;100.00;100804.28;4876536;29;20064;-79
2023/09/03 01:43:32;;;;;;;11.40;7.75;;;;;;;21.50;100.00;100795.53;4876929;29;20517;-81
2023/09/03 01:46:09;;;;;;;10.52;7.95;;;;;;;21.40;100.00;100779.81;4895369;29;20048;-79
2023/09/03 01:48:59;;;;;;;12.40;8.55;;;;;;;21.51;100.00;100806.94;4895244;29;20120;-81
2023/09/03 01:51:42;;;;;;;8.88;7.15;;;;;;;21.41;99.39;100792.94;4894797;29;20084;-83
2023/09/03 01:54:14;;;;;;;10.27;7.50;;;;;;;21.39;99.95;100799.94;4895142;29;20053;-83
2023/09/03 01:56:44;;;;;;;12.45;7.90;;;;;;;21.28;100.00;100794.72;4971304;28;20026;-83
2023/09/03 01:59:19;;;;;;;10.80;7.78;;;;;;;21.38;98.92;100802.56;5047894;28;20047;-82
2023/09/03 02:01:49;;;;;;;9.70;7.57;;;;;;;20.87;98.35;100730.03;5092588;28;20093;-80
2023/09/03 02:04:14;;;;;;;12.77;7.95;;;;;;;21.08;98.71;100778.13;5075847;28;20028;-79
2023/09/03 02:06:45;;;;;;;11.00;7.43;;;;;;;21.16;98.46;100803.50;5076950;28;20050;-82
2023/09/03 02:09:10;;;;;;;10.57;8.20;;;;;;;21.13;97.88;100792.13;5093774;28;20032;-82
2023/09/03 02:11:36;;;;;;;16.05;8.07;;;;;;;21.28;98.59;100793.84;5076145;28;20038;-80
2023/09/03 02:14:01;;;;;;;21.77;7.95;;;;;;;21.28;97.94;100778.97;5091473;28;20032;-83
2023/09/03 02:16:26;;;;;;;13.05;9.00;;;;;;;21.52;97.56;100805.16;5049911;28;20544;-84
2023/09/03 02:18:52;;;;;;;11.88;7.63;;;;;;;21.34;97.72;100764.94;5033120;28;20443;-80
2023/09/03 02:21:17;;;;;;;13.38;8.18;;;;;;;21.56;96.10;100801.66;5033024;28;20044;-81
2023/09/03 02:23:43;;;;;;;12.23;7.70;;;;;;;20.81;96.22;100680.16;5032972;28;20058;-82
2023/09/03 02:26:08;;;;;;;13.57;8.38;;;;;;;20.67;96.63;100669.69;5049605;28;20045;-82
2023/09/03 02:28:36;;;;;;;10.15;7.43;;;;;;;21.47;97.56;100803.44;5049685;28;20036;-80
2023/09/03 02:31:02;;;;;;;14.10;8.63;;;;;;;21.25;99.02;100797.34;5049308;28;20095;-80
2023/09/03 02:33:28;;;;;;;11.05;7.78;;;;;;;21.32;99.18;100799.09;5032773;28;20029;-82
2023/09/03 02:35:54;;;;;;;14.77;8.32;;;;;;;21.29;98.40;100782.47;5032915;28;20040;-79
2023/09/03 02:38:19;;;;;;;11.15;7.75;;;;;;;20.96;96.81;100732.66;5049734;28;20392;-84
2023/09/03 02:40:45;;;;;;;11.38;8.45;;;;;;;21.05;96.72;100762.38;5032817;28;20036;-83
2023/09/03 02:43:12;;;;;;;9.90;7.28;;;;;;;21.13;95.68;100797.38;5032640;28;20036;-86
2023/09/03 02:45:37;;;;;;;9.13;7.38;;;;;;;20.99;94.42;100795.63;5015964;28;20033;-83
2023/09/03 02:48:03;;;;;;;9.02;6.82;;;;;;;20.85;93.93;100803.50;5063786;28;20509;-85
2023/09/03 02:50:28;;;;;;;10.05;7.55;;;;;;;20.69;94.99;100799.09;5073907;28;20407;-87
2023/09/03 02:52:54;;;;;;;13.82;8.13;;;;;;;20.60;95.74;100792.09;5073848;28;20024;-83
2023/09/03 02:55:19;;;;;;;9.68;7.28;;;;;;;20.51;95.83;100782.47;5073782;28;20020;-86
2023/09/03 02:57:45;;;;;;;11.40;7.30;;;;;;;20.67;95.55;100803.47;5073773;28;20031;-80
2023/09/03 03:00:10;;;;;;;11.57;7.43;;;;;;;20.56;95.05;100785.13;5092145;28;20024;-82
2023/09/03 03:02:36;;;;;;;9.30;7.18;;;;;;;20.61;95.22;100791.25;5092083;28;20036;-79
2023/09/03 03:05:02;;;;;;;10.75;7.47;;;;;;;20.50;95.58;100788.59;5073333;28;20411;-83
2023/09/03 03:07:28;;;;;;;13.32;8.32;;;;;;;20.45;95.34;100781.59;5071417;28;20501;-82
2023/09/03 03:09:53;;;;;;;12.60;8.25;;;;;;;20.56;95.62;100799.97;5091647;28;20036;-84
2023/09/03 03:12:19;;;;;;;10.95;7.68;;;;;;;20.55;94.99;100796.47;5028692;28;20042;-81
2023/09/03 03:14:45;;;;;;;12.55;7.65;;;;;;;20.44;94.78;100777.25;5011922;28;20488;-81
2023/09/03 03:17:11;;;;;;;10.07;7.03;;;;;;;20.44;94.97;100791.22;5029030;28;20037;-84
2023/09/03 03:19:39;;;;;;;14.73;7.63;;;;;;;20.46;95.03;100802.59;5012322;28;20535;-81
2023/09/03 03:22:04;;;;;;;12.48;8.23;;;;;;;20.32;95.55;100796.44;5012358;28;20103;-87
2023/09/03 03:24:33;;;;;;;9.65;7.57;;;;;;;20.26;95.91;100807.81;5012322;28;20026;-82
2023/09/03 03:27:00;;;;;;;14.75;9.70;;;;;;;20.22;97.81;100808.63;5012158;28;20076;-82
2023/09/03 03:29:28;;;;;;;11.40;9.13;;;;;;;20.13;97.39;100790.28;5012209;28;20072;-79
2023/09/03 03:31:53;;;;;;;14.65;9.13;;;;;;;20.14;97.57;100795.53;5012000;28;20505;-81
2023/09/03 03:34:19;;;;;;;13.75;10.93;;;;;;;20.20;98.20;100807.78;5012050;28;20063;-81
2023/09/03 03:36:44;;;;;;;14.55;10.30;;;;;;;20.10;98.32;100796.41;5011997;28;20029;-79
2023/09/03 03:39:10;;;;;;;12.68;10.90;;;;;;;20.12;99.12;100820.84;5011898;28;20069;-84
2023/09/03 03:41:36;;;;;;;13.07;11.07;;;;;;;20.11;98.91;100800.78;5012152;28;20044;-83
2023/09/03 03:44:02;;;;;;;16.30;11.38;;;;;;;19.97;99.55;100787.59;5078113;28;20572;-81
2023/09/03 03:46:27;;;;;;;14.20;11.50;;;;;;;20.10;100.00;100821.72;5072539;28;20028;-81
2023/09/03 03:48:53;;;;;;;13.90;11.13;;;;;;;20.06;99.87;100809.47;5072924;28;20086;-82
2023/09/03 03:51:18;;;;;;;13.52;11.20;;;;;;;19.98;100.00;100817.31;5090859;28;20530;-81
2023/09/03 03:53:44;;;;;;;12.82;9.88;;;;;;;19.90;100.00;100798.06;5047932;28;20055;-85
2023/09/03 03:56:10;;;;;;;13.23;9.10;;;;;;;19.82;100.00;100805.88;5048042;28;20048;-83
2023/09/03 03:58:41;;;;;;;12.73;10.23;;;;;;;19.47;100.00;100778.63;5031246;28;20471;-82
2023/09/03 04:01:19;;;;;;;14.30;9.20;;;;;;;19.24;100.00;100734.88;5031511;28;20033;-84
2023/09/03 04:03:46;;;;;;;17.77;9.95;;;;;;;19.39;100.00;100786.44;5048162;28;20525;-79
2023/09/03 04:06:12;;;;;;;14.00;9.15;;;;;;;19.31;100.00;100801.22;5031407;28;20508;-81
2023/09/03 04:08:39;;;;;;;15.52;9.35;;;;;;;19.10;100.00;100788.88;5047811;28;20036;-80
2023/09/03 04:11:07;;;;;;;15.63;10.07;;;;;;;19.33;100.00;100806.50;5030992;28;20078;-83
2023/09/03 04:13:33;;;;;;;11.68;9.82;;;;;;;19.11;100.00;100776.69;5030729;28;20063;-82
2023/09/03 04:15:59;;;;;;;15.35;10.25;;;;;;;19.31;100.00;100813.44;5031096;28;20029;-82
2023/09/03 04:18:26;;;;;;;16.10;10.15;;;;;;;18.86;100.00;100732.84;5048092;28;20043;-81
2023/09/03 04:20:54;;;;;;;12.88;10.13;;;;;;;19.31;100.00;100802.97;5031155;28;20043;-82
2023/09/03 04:23:20;;;;;;;15.98;10.35;;;;;;;19.40;100.00;100816.13;5030931;28;20052;-81
2023/09/03 04:25:47;;;;;;;13.32;10.93;;;;;;;19.20;100.00;100771.50;5069080;28;20486;-81
2023/09/03 04:28:13;;;;;;;14.00;10.52;;;;;;;19.18;100.00;100768.88;5072540;28;20494;-83
2023/09/03 04:30:40;;;;;;;11.35;9.38;;;;;;;19.35;100.00;100810.88;5090791;28;20034;-87
2023/09/03 04:33:07;;;;;;;13.77;9.43;;;;;;;19.38;100.00;100820.47;5072454;28;20063;-82
2023/09/03 04:35:33;;;;;;;13.90;10.57;;;;;;;19.14;100.00;100785.44;5072184;28;20084;-80
2023/09/03 04:37:58;;;;;;;14.13;9.80;;;;;;;19.28;100.00;100805.56;5072023;28;20032;-82
2023/09/03 04:40:24;;;;;;;14.25;11.05;;;;;;;19.29;100.00;100797.75;5072193;28;20035;-82
2023/09/03 04:42:50;;;;;;;23.38;13.35;;;;;;;19.17;100.00;100810.75;5088888;28;20130;-82
2023/09/03 04:45:15;;;;;;;21.20;14.48;;;;;;;19.12;100.00;100800.22;5071973;28;20032;-81
2023/09/03 04:47:41;;;;;;;18.48;13.82;;;;;;;18.56;100.00;100708.22;5071969;28;20498;-86
2023/09/03 04:50:07;;;;;;;16.40;12.48;;;;;;;19.06;100.00;100776.63;5090570;28;20020;-85
2023/09/03 04:52:34;;;;;;;15.40;12.05;;;;;;;19.20;100.00;100795.94;5072022;28;20422;-81
2023/09/03 04:55:00;;;;;;;16.92;12.48;;;;;;;18.76;100.00;100723.19;5071936;28;20842;-84
2023/09/03 04:57:25;;;;;;;13.98;11.32;;;;;;;19.16;100.00;100802.00;5072345;28;20036;-84
2023/09/03 04:59:51;;;;;;;14.50;11.88;;;;;;;19.23;100.00;100801.19;5094789;28;20092;-79
2023/09/03 05:02:17;;;;;;;15.25;12.05;;;;;;;19.22;100.00;100788.97;5075800;28;20077;-80
2023/09/03 05:04:42;;;;;;;17.48;12.25;;;;;;;19.16;100.00;100769.72;5094111;28;20036;-81
2023/09/03 05:07:09;;;;;;;15.57;12.15;;;;;;;19.22;100.00;100793.31;5075715;28;20020;-80
2023/09/03 05:09:34;;;;;;;38.70;13.55;;;;;;;19.38;100.00;100800.41;5075679;28;20129;-84
2023/09/03 05:12:00;;;;;;;18.10;11.98;;;;;;;19.28;100.00;100740.13;5075847;28;20020;-82
2023/09/03 05:14:25;;;;;;;24.75;12.18;;;;;;;19.78;100.00;100763.06;5075384;28;20038;-80
2023/09/03 05:16:50;;;;;;;20.50;11.90;;;;;;;20.03;100.00;100764.03;5093986;28;20469;-81
2023/09/03 05:19:16;;;;;;;17.35;9.85;;;;;;;20.31;100.00;100792.06;5075694;28;20506;-81
2023/09/03 05:21:42;;;;;;;14.75;10.27;;;;;;;20.34;100.00;100771.97;5075737;28;20051;-77
2023/09/03 05:24:08;;;;;;;13.10;10.23;;;;;;;20.47;100.00;100785.09;5093829;28;20066;-79
2023/09/03 05:26:33;;;;;;;26.48;11.70;;;;;;;20.46;100.00;100772.84;5075796;28;20024;-82
2023/09/03 05:28:59;;;;;;;16.08;10.30;;;;;;;20.57;100.00;100767.63;5075551;28;20043;-80
2023/09/03 05:31:25;;;;;;;13.73;10.63;;;;;;;20.76;100.00;100789.50;5093952;28;20020;-81
2023/09/03 05:33:50;;;;;;;14.95;10.23;;;;;;;20.77;100.00;100770.28;5075311;28;20036;-81
2023/09/03 05:36:15;;;;;;;14.68;10.30;;;;;;;20.92;100.00;100766.75;5093951;28;20020;-80
2023/09/03 05:38:42;;;;;;;13.93;10.15;;;;;;;21.08;100.00;100768.47;5075358;28;20411;-81
2023/09/03 05:41:11;;;;;;;14.55;9.88;;;;;;;21.01;100.00;100745.78;5075348;28;20046;-81
2023/09/03 05:43:39;;;;;;;12.93;9.33;;;;;;;21.06;100.00;100774.63;5093479;28;20034;-79
2023/09/03 05:46:05;;;;;;;16.50;8.95;;;;;;;20.94;100.00;100755.38;5093264;28;20721;-80
2023/09/03 05:48:31;;;;;;;26.35;14.10;;;;;;;21.10;100.00;100761.50;5075224;28;20111;-78
2023/09/03 05:51:03;;;;;;;15.38;10.25;;;;;;;21.01;100.00;100709.03;5093350;28;20536;-81
2023/09/03 05:53:33;;;;;;;31.48;18.10;;;;;;;21.43;100.00;100775.44;5092754;28;20057;-78
2023/09/03 05:56:09;;;;;;;;;;;;;;;21.49;100.00;100764.88;5093665;28;20031;-80
2023/09/03 05:58:34;;;;;;;33.75;18.83;;;;;;;21.51;100.00;100762.25;5074971;28;19998;-80
2023/09/03 06:01:10;;;;;;;18.20;11.90;;;;;;;21.48;100.00;100765.78;5074980;28;20162;-80
2023/09/03 06:03:38;;;;;;;17.98;13.20;;;;;;;21.49;100.00;100769.25;5074752;28;20020;-79
2023/09/03 06:06:05;;;;;;;15.05;10.65;;;;;;;21.53;100.00;100757.84;5074809;28;20024;-82
2023/09/03 06:08:32;;;;;;;20.75;12.85;;;;;;;21.48;100.00;100762.25;5074587;28;20032;-82
2023/09/03 06:10:58;;;;;;;13.65;9.77;;;;;;;21.53;100.00;100759.63;5074955;28;20112;-81
2023/09/03 06:13:23;;;;;;;15.35;8.15;;;;;;;21.57;100.00;100764.00;5074632;28;20205;-78
2023/09/03 06:15:50;;;;;;;11.77;8.90;;;;;;;21.27;100.00;100701.06;5092897;28;20570;-81
2023/09/03 06:18:16;;;;;;;16.27;10.85;;;;;;;21.79;100.00;100770.94;5092833;28;20050;-81
2023/09/03 06:20:41;;;;;;;15.07;9.55;;;;;;;21.97;100.00;100771.75;5074738;28;20482;-80
2023/09/03 06:23:08;;;;;;;16.60;11.13;;;;;;;21.78;99.94;100697.34;5092791;28;20120;-81
2023/09/03 06:25:35;;;;;;;12.32;8.30;;;;;;;22.27;99.42;100762.78;5092491;28;20441;-80
2023/09/03 06:28:00;;;;;;;8.82;6.90;;;;;;;22.51;96.85;100786.34;5092649;28;20043;-80
2023/09/03 06:30:26;;;;;;;8.63;6.38;;;;;;;22.57;95.95;100786.28;5093264;28;20112;-79
2023/09/03 06:32:52;;;;;;;66.18;56.83;;;;;;;22.59;95.18;100772.22;5074652;28;20040;-80
2023/09/03 06:35:18;;;;;;;229.20;157.73;;;;;;;22.78;94.14;100795.78;5092693;28;20077;-79
2023/09/03 06:37:43;;;;;;;35.33;18.77;;;;;;;;;;5092562;28;20039;-80
2023/09/03 06:40:09;;;;;;;23.85;9.50;;;;;;;23.11;92.07;100785.81;5092422;28;20024;-80
2023/09/03 06:42:35;;;;;;;22.83;15.07;;;;;;;23.20;88.63;100763.78;5091004;28;20388;-78
2023/09/03 06:45:01;;;;;;;38.85;24.58;;;;;;;23.40;87.25;100782.91;5092178;28;20506;-80
2023/09/03 06:47:26;;;;;;;10.77;6.50;;;;;;;23.39;83.63;100775.00;5090977;28;20427;-77
2023/09/03 06:49:52;;;;;;;10.00;6.60;;;;;;;23.35;84.75;100761.00;5092164;28;20031;-81
2023/09/03 06:52:19;;;;;;;28.00;16.02;;;;;;;23.62;83.89;100782.63;5091975;28;20459;-78
2023/09/03 06:54:45;;;;;;;8.40;5.45;;;;;;;23.71;81.21;100781.66;5074039;28;20126;-79
2023/09/03 06:57:11;;;;;;;48.25;28.33;;;;;;;23.69;82.46;100765.88;5074063;28;20020;-81
2023/09/03 06:59:37;;;;;;;23.90;17.00;;;;;;;23.82;77.80;100766.56;5026669;28;20697;-81
2023/09/03 07:02:02;;;;;;;23.25;16.85;;;;;;;24.00;77.99;100777.78;5028946;28;20049;-80
2023/09/03 07:04:28;;;;;;;13.93;9.18;;;;;;;23.98;78.15;100780.44;5010352;28;20484;-78
2023/09/03 07:06:53;;;;;;;9.35;6.50;;;;;;;24.13;71.41;100781.16;5029107;28;20052;-78
2023/09/03 07:09:19;;;;;;;11.90;8.23;;;;;;;24.32;71.76;100784.38;5014505;28;20029;-80
2023/09/03 07:11:44;;;;;;;7.20;4.50;;;;;;;24.47;72.13;100794.69;5012654;28;20452;-78
2023/09/03 07:14:09;;;;;;;8.30;4.32;;;;;;;24.56;68.06;100791.03;5029206;28;20096;-79
2023/09/03 07:16:35;;;;;;;6.90;4.28;;;;;;;24.66;72.07;100784.75;5028856;28;20622;-85
2023/09/03 07:19:00;;;;;;;13.32;4.43;;;;;;;24.79;68.45;100785.41;5028880;28;20029;-81
2023/09/03 07:21:27;;;;;;;6.70;4.00;;;;;;;24.89;65.22;100786.13;5028330;28;20033;-80
2023/09/03 07:23:53;;;;;;;7.35;3.65;;;;;;;24.95;67.04;100790.41;5028809;28;20069;-79
2023/09/03 07:26:19;;;;;;;6.45;3.60;;;;;;;25.07;62.05;100781.41;5028991;28;20536;-79
2023/09/03 07:28:44;;;;;;;8.27;3.50;;;;;;;24.91;66.46;100730.63;5028752;28;20108;-79
2023/09/03 07:31:30;;;;;;;8.43;3.90;;;;;;;25.32;62.84;100785.34;4969990;28;20146;-78
2023/09/03 07:33:58;;;;;;;4.43;3.45;;;;;;;25.37;61.37;100787.91;4969929;28;20511;-78
2023/09/03 07:36:23;;;;;;;6.03;3.08;;;;;;;25.52;58.10;100776.16;4983118;28;20037;-78
2023/09/03 07:38:48;;;;;;;5.93;3.60;;;;;;;25.61;59.95;100770.69;5028805;28;20048;-81
2023/09/03 07:41:14;;;;;;;8.07;3.13;;;;;;;25.74;60.54;100781.00;5011794;28;20041;-78
2023/09/03 07:43:39;;;;;;;5.55;3.35;;;;;;;25.85;59.12;100781.66;5028363;28;20037;-80
2023/09/03 07:46:06;;;;;;;5.22;3.17;;;;;;;25.97;57.93;100783.13;5025811;28;20560;-78
2023/09/03 07:48:34;;;;;;;7.65;3.40;;;;;;;26.07;56.60;100752.97;5028597;28;20604;-78
2023/09/03 07:50:59;;;;;;;4.43;2.63;;;;;;;26.35;52.01;100764.69;5028488;28;20048;-80
2023/09/03 07:53:25;;;;;;;5.57;3.35;;;;;;;26.53;56.18;100780.13;5028254;28;20624;-83
2023/09/03 07:55:50;;;;;;;27.05;17.85;;;;;;;26.67;52.51;100778.91;5028228;28;20091;-78
2023/09/03 07:58:17;;;;;;;10.43;4.88;;;;;;;26.74;51.61;100786.72;5028347;28;20525;-78
2023/09/03 08:00:43;;;;;;;5.47;2.97;;;;;;;26.94;48.67;100778.25;5028383;28;20108;-80
2023/09/03 08:03:08;;;;;;;11.70;3.38;;;;;;;27.15;50.84;100785.66;5058482;28;20479;-83
2023/09/03 08:05:33;;;;;;;4.60;2.83;;;;;;;27.24;47.58;100766.84;5090737;28;20016;-78
2023/09/03 08:07:59;;;;;;;8.73;2.92;;;;;;;27.44;48.16;100774.25;5091148;28;20036;-77
2023/09/03 08:10:26;;;;;;;3.97;2.92;;;;;;;27.44;48.45;100764.53;5090783;28;20442;-79
2023/09/03 08:12:51;;;;;;;5.80;3.20;;;;;;;27.49;51.99;100758.22;5089579;28;20032;-78
2023/09/03 08:15:17;;;;;;;7.97;3.35;;;;;;;27.47;49.63;100741.50;5090903;28;20036;-77
2023/09/03 08:17:43;;;;;;;5.15;3.13;;;;;;;27.34;48.77;100717.97;5089521;28;20070;-78
2023/09/03 08:20:12;;;;;;;8.20;3.10;;;;;;;27.76;49.17;100769.81;5090864;28;20020;-79
2023/09/03 08:22:37;;;;;;;30.95;4.63;;;;;;;27.85;49.05;100752.72;5089206;28;20032;-80
2023/09/03 08:25:03;;;;;;;15.23;4.68;;;;;;;28.08;47.81;100768.00;5072458;28;20119;-80
2023/09/03 08:27:29;;;;;;;6.30;3.17;;;;;;;28.21;46.69;100761.38;5089265;28;20023;-80
2023/09/03 08:29:54;;;;;;;11.30;3.42;;;;;;;28.27;47.79;100754.13;5090397;28;20036;-79
2023/09/03 08:32:20;;;;;;;5.15;2.78;;;;;;;28.28;46.93;100751.41;5047486;28;20049;-79
2023/09/03 08:34:46;;;;;;;7.53;3.42;;;;;;;28.39;49.68;100753.72;5047810;28;20106;-80
2023/09/03 08:37:12;;;;;;;7.22;3.47;;;;;;;28.32;46.74;100762.81;5030737;28;20048;-80
2023/09/03 08:39:37;;;;;;;11.90;3.70;;;;;;;28.33;48.28;100753.94;5047567;28;20534;-82
2023/09/03 08:42:04;;;;;;;18.13;4.13;;;;;;;28.44;48.89;100737.63;5047273;28;20492;-80
2023/09/03 08:44:42;;;;;;;11.82;3.78;;;;;;;28.37;50.25;100724.53;5030859;28;20039;-82
2023/09/03 08:47:10;;;;;;;8.68;3.78;;;;;;;28.55;49.66;100748.78;5047544;28;20036;-82
2023/09/03 08:49:38;;;;;;;13.35;3.58;;;;;;;28.55;47.07;100751.44;5030976;28;20118;-80
2023/09/03 08:52:05;;;;;;;11.80;4.03;;;;;;;28.66;47.07;100735.13;5030839;28;20127;-80
2023/09/03 08:54:31;;;;;;;23.48;4.60;;;;;;;28.79;48.83;100732.94;5012901;28;20092;-79
2023/09/03 08:56:59;;;;;;;12.77;4.20;;;;;;;28.32;50.23;100672.53;5027270;28;20029;-80
2023/09/03 08:59:24;;;;;;;87.60;8.88;;;;;;;28.61;49.43;100707.84;5010906;28;20029;-79
2023/09/03 09:01:53;;;;;;;8.30;3.85;;;;;;;28.82;46.99;100730.16;5010829;28;20057;-81
2023/09/03 09:04:20;;;;;;;10.48;4.25;;;;;;;28.86;48.76;100726.47;5083884;28;20048;-82
2023/09/03 09:06:47;;;;;;;12.77;5.20;;;;;;;28.78;48.37;100670.09;5090119;28;20062;-82
2023/09/03 09:09:34;;;;;;;9.68;4.47;;;;;;;29.15;46.50;100716.59;5090027;28;20050;-81
2023/09/03 09:12:31;;;;;;;5.00;3.30;;;;;;;29.40;44.99;100713.94;5030442;28;20045;-83
2023/09/03 09:15:03;;;;;;;5.18;3.58;;;;;;;29.34;42.83;100704.38;4971815;28;20145;-85
2023/09/03 09:17:36;;;;;;;5.90;3.70;;;;;;;29.31;44.32;100708.94;4988071;28;20110;-82
2023/09/03 09:20:01;;;;;;;6.22;3.35;;;;;;;29.47;45.52;100699.47;4988184;28;20054;-81
2023/09/03 09:22:28;;;;;;;8.00;3.53;;;;;;;29.47;44.77;100707.44;4988030;28;20049;-86
2023/09/03 09:24:54;;;;;;;6.38;3.63;;;;;;;29.22;44.21;100678.22;4971694;28;20042;-82
2023/09/03 09:27:20;;;;;;;7.35;3.72;;;;;;;29.24;46.14;100707.44;4968640;28;20030;-80
2023/09/03 09:29:46;;;;;;;4.50;3.67;;;;;;;29.27;46.57;100696.66;4968529;28;20046;-80
2023/09/03 09:32:22;;;;;;;6.05;3.95;;;;;;;28.73;49.10;100643.69;4968869;28;20049;-79
2023/09/03 09:34:50;;;;;;;12.18;3.63;;;;;;;28.98;43.28;100642.78;4968799;28;20031;-84
2023/09/03 09:37:16;;;;;;;5.75;3.42;;;;;;;29.41;45.50;100698.81;4952735;28;20034;-79
2023/09/03 09:39:49;;;;;;;40.63;5.57;;;;;;;29.44;43.68;100699.56;4968543;28;20104;-78
2023/09/03 09:42:22;;;;;;;5.60;3.30;;;;;;;29.49;45.32;100697.59;4950472;28;20043;-75
2023/09/03 09:44:50;;;;;;;8.15;3.30;;;;;;;29.41;44.55;100694.38;4964681;28;20486;-77
2023/09/03 09:47:17;;;;;;;5.13;3.45;;;;;;;29.54;45.00;100698.28;4949697;28;20093;-77
2023/09/03 09:49:43;;;;;;;8.07;3.65;;;;;;;29.44;41.43;100669.47;4971584;28;20042;-77
2023/09/03 09:52:12;;;;;;;4.95;3.25;;;;;;;29.64;40.63;100655.38;4980647;28;20128;-77
2023/09/03 09:54:42;;;;;;;8.18;3.50;;;;;;;29.96;40.68;100656.75;4994167;28;20545;-78
2023/09/03 09:57:20;;;;;;;6.35;3.70;;;;;;;30.26;40.89;100687.50;4994490;28;20196;-80
2023/09/03 09:59:52;;;;;;;9.70;3.90;;;;;;;30.13;43.64;100673.81;5010816;28;20038;-78
2023/09/03 10:02:19;;;;;;;9.15;3.60;;;;;;;30.22;41.11;100680.56;5009824;28;20029;-77
2023/09/03 10:04:53;;;;;;;11.07;3.90;;;;;;;30.42;38.23;100666.38;4996897;28;20139;-79
2023/09/03 10:07:19;;;;;;;5.88;3.40;;;;;;;30.73;37.48;100659.75;4988577;28;20039;-79
2023/09/03 10:09:45;;;;;;;7.75;3.35;;;;;;;30.94;36.15;100663.25;4990685;28;20046;-80
2023/09/03 10:12:12;;;;;;;4.97;3.00;;;;;;;31.00;35.93;100641.66;4974411;28;20038;-81
2023/09/03 10:14:39;;;;;;;5.88;3.00;;;;;;;31.24;35.44;100646.81;4974553;28;20038;-86
2023/09/03 10:17:09;;;;;;;4.97;2.92;;;;;;;31.09;34.98;100635.94;4990999;28;20053;-80
2023/09/03 10:19:47;;;;;;;7.70;3.30;;;;;;;30.88;37.57;100615.56;5008544;28;20038;-81
2023/09/03 10:22:16;;;;;;;8.95;3.55;;;;;;;30.95;37.92;100638.34;5013470;28;20034;-79
2023/09/03 10:24:46;;;;;;;25.52;7.88;;;;;;;31.00;38.97;100640.81;5030065;28;20029;-79
2023/09/03 10:27:18;;;;;;;7.60;3.47;;;;;;;31.06;38.52;100636.03;5013417;28;20030;-85
2023/09/03 10:29:46;;;;;;;5.10;2.97;;;;;;;31.25;37.48;100635.22;5013292;28;20152;-80
2023/09/03 10:32:15;;;;;;;6.55;3.35;;;;;;;31.33;38.39;100625.06;5029513;28;20052;-79
2023/09/03 10:34:41;;;;;;;4.20;2.83;;;;;;;31.12;37.70;100561.13;5029566;28;20129;-78
2023/09/03 10:37:11;;;;;;;9.48;4.10;;;;;;;31.57;35.74;100609.66;5026290;28;20033;-80
2023/09/03 10:39:40;;;;;;;11.85;3.83;;;;;;;31.91;34.33;100629.34;5089473;28;20077;-79
2023/09/03 10:42:15;;;;;;;47.60;42.47;;;;;;;32.06;37.41;100625.06;5074599;28;20042;-76
2023/09/03 10:44:45;;;;;;;6.72;4.18;;;;;;;32.03;36.16;100600.34;5074203;28;20035;-80
2023/09/03 10:47:13;;;;;;;24.65;4.13;;;;;;;32.04;36.49;100608.25;5074520;28;20031;-78
2023/09/03 10:49:46;;;;;;;8.30;3.60;;;;;;;32.29;35.46;100616.84;5075060;28;20031;-78
2023/09/03 10:52:37;;;;;;;6.53;3.50;;;;;;;32.46;34.29;100607.94;5092356;28;20032;-76
2023/09/03 10:55:32;;;;;;;4.85;2.83;;;;;;;32.53;34.85;100606.69;5091385;28;20064;-80
2023/09/03 10:58:23;;;;;;;3.17;2.70;;;;;;;32.32;34.89;100612.19;5009841;28;20038;-80
2023/09/03 11:01:18;;;;;;;5.88;3.03;;;;;;;32.56;33.94;100610.06;5010084;28;20029;-78
2023/09/03 11:03:46;;;;;;;5.15;3.45;;;;;;;32.75;32.69;100603.75;5009542;28;20520;-83
2023/09/03 11:06:22;;;;;;;8.10;3.55;;;;;;;32.94;31.43;100603.63;5009395;28;20069;-78
2023/09/03 11:09:11;;;;;;;6.95;3.05;;;;;;;33.04;32.04;100602.16;5009499;28;20559;-79
2023/09/03 11:11:38;;;;;;;5.28;2.80;;;;;;;33.19;31.91;100596.91;4970276;28;20053;-78
2023/09/03 11:14:06;;;;;;;4.43;2.97;;;;;;;33.32;31.07;100587.28;4969992;28;20051;-80
2023/09/03 11:16:36;;;;;;;8.50;3.45;;;;;;;32.74;33.24;100468.34;4970335;28;20031;-79
2023/09/03 11:19:21;;;;;;;5.60;2.72;;;;;;;33.32;30.25;100573.00;4931643;29;20044;-84
2023/09/03 11:21:47;;;;;;;5.82;2.90;;;;;;;33.33;30.59;100559.53;4931581;29;20396;-80